Time;durP1;ratioP1;P1;durP2;ratioP2;P2;SDS_P1;SDS_P2;PMS_P1;PMS_P2;Temp;Humidity;BMP_temperature;BMP_pressure;BME280_temperature;BME280_humidity;BME280_pressure;Samples;Min_cycle;Max_cycle;Signal;HPM_P1;HPM_P2
2021/03/30 00:02:11;;;;;;;1.63;1.50;;;23.20;24.80;;;;;;4972353;28;20228;-54
2021/03/30 00:04:37;;;;;;;2.07;1.30;;;23.20;24.90;;;;;;4973236;28;20201;-51
2021/03/30 00:07:03;;;;;;;1.60;1.50;;;23.20;24.90;;;;;;4973380;28;20526;-51
2021/03/30 00:09:29;;;;;;;1.87;1.40;;;23.20;24.90;;;;;;4972806;28;20212;-52
2021/03/30 00:11:55;;;;;;;1.40;1.20;;;23.20;24.90;;;;;;4972982;28;20232;-52
2021/03/30 00:14:21;;;;;;;2.40;1.77;;;23.20;24.90;;;;;;4972540;28;20227;-54
2021/03/30 00:16:47;;;;;;;1.50;1.40;;;23.20;24.80;;;;;;4973512;28;20208;-49
2021/03/30 00:19:13;;;;;;;1.63;1.40;;;23.20;24.80;;;;;;4972322;28;20227;-47
2021/03/30 00:21:39;;;;;;;1.20;1.20;;;23.20;24.80;;;;;;4972169;28;20263;-47
2021/03/30 00:24:05;;;;;;;1.37;1.27;;;23.10;24.80;;;;;;4966738;28;20215;-48
2021/03/30 00:26:35;;;;;;;1.73;1.30;;;23.10;24.80;;;;;;4968311;28;20215;-54
2021/03/30 00:29:01;;;;;;;1.40;1.30;;;23.10;24.80;;;;;;4971856;28;20200;-51
2021/03/30 00:31:27;;;;;;;1.40;1.30;;;23.10;24.80;;;;;;4972979;28;20234;-50
2021/03/30 00:33:53;;;;;;;1.77;1.47;;;23.10;24.80;;;;;;4972463;28;20206;-47
2021/03/30 00:36:19;;;;;;;1.87;1.40;;;23.10;24.90;;;;;;4972605;28;20806;-45
2021/03/30 00:38:45;;;;;;;2.50;1.90;;;23.10;24.90;;;;;;4972591;28;20208;-47
2021/03/30 00:41:11;;;;;;;2.47;1.60;;;23.20;25.00;;;;;;4973016;28;20581;-45
2021/03/30 00:43:37;;;;;;;1.57;1.43;;;23.10;24.90;;;;;;4972325;28;20264;-48
2021/03/30 00:46:03;;;;;;;2.03;1.50;;;23.10;24.90;;;;;;4973507;28;20266;-51
2021/03/30 00:48:29;;;;;;;1.30;1.20;;;23.10;24.90;;;;;;4969660;28;20200;-46
2021/03/30 00:50:55;;;;;;;1.73;1.40;;;23.20;24.90;;;;;;4972861;28;20228;-48
2021/03/30 00:53:21;;;;;;;1.50;1.40;;;23.20;25.00;;;;;;4969698;28;20682;-48
2021/03/30 00:55:47;;;;;;;1.90;1.40;;;23.20;24.90;;;;;;4972529;28;20219;-45
2021/03/30 00:58:13;;;;;;;1.60;1.50;;;23.10;25.40;;;;;;4971213;28;20202;-51
2021/03/30 01:00:39;;;;;;;1.40;1.30;;;23.10;24.90;;;;;;4972693;28;20232;-44
2021/03/30 01:03:05;;;;;;;1.83;1.67;;;23.20;25.00;;;;;;4971480;28;20198;-49
2021/03/30 01:05:31;;;;;;;3.87;1.57;;;23.10;24.90;;;;;;4972842;28;20215;-47
2021/03/30 01:07:57;;;;;;;1.40;1.30;;;23.20;25.10;;;;;;4971514;28;20278;-45
2021/03/30 01:10:23;;;;;;;1.40;1.27;;;23.20;25.00;;;;;;4971985;28;20243;-45
2021/03/30 01:12:48;;;;;;;1.40;1.30;;;23.10;25.00;;;;;;4971634;28;20208;-44
2021/03/30 01:15:14;;;;;;;1.33;1.23;;;23.10;25.00;;;;;;4972640;28;20230;-50
2021/03/30 01:17:40;;;;;;;1.50;1.30;;;23.20;25.10;;;;;;4971347;28;20203;-47
2021/03/30 01:20:06;;;;;;;1.20;1.10;;;23.20;25.10;;;;;;4971309;28;20629;-51
2021/03/30 01:22:32;;;;;;;1.27;1.20;;;23.10;25.00;;;;;;4971064;28;20231;-52
2021/03/30 01:24:58;;;;;;;1.37;1.27;;;23.10;25.00;;;;;;4972364;28;20208;-44
2021/03/30 01:27:24;;;;;;;2.30;1.60;;;23.10;25.00;;;;;;4970720;28;20207;-54
2021/03/30 01:29:50;;;;;;;1.60;1.40;;;23.10;25.00;;;;;;4972086;28;20231;-50
2021/03/30 01:32:16;;;;;;;1.50;1.40;;;23.20;25.10;;;;;;4969933;28;22217;-47
2021/03/30 01:34:42;;;;;;;1.80;1.47;;;23.10;25.00;;;;;;4970658;28;20209;-49
2021/03/30 01:37:08;;;;;;;1.73;1.37;;;23.10;25.10;;;;;;4969811;28;20221;-48
2021/03/30 01:39:34;;;;;;;1.30;1.20;;;23.10;25.10;;;;;;4966830;28;20240;-45
2021/03/30 01:42:00;;;;;;;1.93;1.23;;;23.10;25.10;;;;;;4971162;28;20270;-45
2021/03/30 01:44:26;;;;;;;1.60;1.47;;;23.10;25.10;;;;;;4971570;28;20549;-44
2021/03/30 01:46:52;;;;;;;1.40;1.30;;;23.10;25.10;;;;;;4971176;28;20204;-51
2021/03/30 01:49:18;;;;;;;1.60;1.30;;;23.10;25.10;;;;;;4970911;28;20573;-45
2021/03/30 01:51:44;;;;;;;1.30;1.20;;;23.10;25.10;;;;;;4970429;28;20211;-47
2021/03/30 01:54:10;;;;;;;2.13;1.40;;;23.10;25.10;;;;;;4952303;28;20209;-51
2021/03/30 01:56:36;;;;;;;1.37;1.23;;;23.10;25.10;;;;;;4967988;28;20267;-48
2021/03/30 01:59:02;;;;;;;1.97;1.30;;;23.10;25.10;;;;;;4970478;28;20212;-49
2021/03/30 02:01:28;;;;;;;1.40;1.30;;;23.10;25.10;;;;;;4972254;28;20583;-46
2021/03/30 02:03:54;;;;;;;1.30;1.20;;;23.10;25.10;;;;;;4968052;28;20208;-45
2021/03/30 02:06:20;;;;;;;1.50;1.40;;;23.10;25.10;;;;;;4969396;28;20208;-44
2021/03/30 02:08:46;;;;;;;1.65;1.50;;;23.10;25.20;;;;;;4971640;28;20838;-47
2021/03/30 02:11:21;;;;;;;1.60;1.50;;;23.20;25.20;;;;;;4970932;28;20650;-44
2021/03/30 02:13:54;;;;;;;1.30;1.20;;;23.10;25.20;;;;;;4971032;28;20207;-45
2021/03/30 02:16:20;;;;;;;1.53;1.43;;;23.10;25.20;;;;;;4970109;28;20210;-50
2021/03/30 02:18:46;;;;;;;2.30;1.70;;;23.10;25.20;;;;;;4971049;28;20212;-51
2021/03/30 02:21:12;;;;;;;1.30;1.20;;;23.10;25.20;;;;;;4969890;28;20354;-46
2021/03/30 02:23:38;;;;;;;1.43;1.33;;;23.10;25.20;;;;;;4969017;28;20203;-46
2021/03/30 02:26:04;;;;;;;1.47;1.20;;;23.10;25.20;;;;;;4965695;28;20903;-50
2021/03/30 02:28:37;;;;;;;2.10;1.30;;;23.10;25.20;;;;;;4976926;28;20224;-44
2021/03/30 02:31:03;;;;;;;1.87;1.50;;;23.10;25.20;;;;;;4968397;28;20231;-48
2021/03/30 02:33:29;;;;;;;1.40;1.30;;;23.10;25.20;;;;;;4969536;28;20273;-45
2021/03/30 02:35:55;;;;;;;1.27;1.17;;;23.10;25.70;;;;;;4971521;28;20207;-52
2021/03/30 02:38:21;;;;;;;1.30;1.20;;;23.10;25.20;;;;;;4970442;28;20207;-55
2021/03/30 02:40:47;;;;;;;1.40;1.30;;;23.10;25.20;;;;;;4971332;28;20248;-47
2021/03/30 02:43:13;;;;;;;1.40;1.30;;;23.10;25.20;;;;;;4969444;28;20272;-49
2021/03/30 02:45:39;;;;;;;1.70;1.20;;;23.10;25.20;;;;;;4970797;28;20200;-47
2021/03/30 02:48:05;;;;;;;1.40;1.30;;;23.10;25.20;;;;;;4969351;28;20545;-49
2021/03/30 02:50:31;;;;;;;1.40;1.30;;;23.10;25.20;;;;;;4970760;28;20224;-49
2021/03/30 02:52:57;;;;;;;1.30;1.20;;;23.10;25.20;;;;;;4969545;28;20218;-48
2021/03/30 02:55:23;;;;;;;1.30;1.10;;;23.10;25.20;;;;;;4969807;28;20214;-55
2021/03/30 02:57:49;;;;;;;1.53;1.30;;;23.10;25.20;;;;;;4971032;28;20215;-51
2021/03/30 03:00:15;;;;;;;1.53;1.40;;;23.10;25.20;;;;;;4969884;28;20250;-53
2021/03/30 03:02:41;;;;;;;1.30;1.20;;;23.10;25.20;;;;;;4969920;28;20207;-48
2021/03/30 03:05:07;;;;;;;1.63;1.53;;;23.10;25.20;;;;;;4963959;28;20215;-47
2021/03/30 03:07:33;;;;;;;1.67;1.33;;;23.10;25.20;;;;;;4966437;28;20235;-47
2021/03/30 03:09:59;;;;;;;1.47;1.30;;;23.10;25.30;;;;;;4970846;28;20235;-45
2021/03/30 03:12:25;;;;;;;1.50;1.30;;;23.10;25.20;;;;;;4969738;28;20251;-50
2021/03/30 03:14:51;;;;;;;1.63;1.40;;;23.10;25.30;;;;;;4970872;28;20199;-46
2021/03/30 03:17:17;;;;;;;1.73;1.30;;;23.10;25.30;;;;;;4969567;28;20557;-48
2021/03/30 03:19:43;;;;;;;1.40;1.30;;;23.10;25.30;;;;;;4971159;28;20226;-48
2021/03/30 03:22:09;;;;;;;1.50;1.40;;;23.10;25.30;;;;;;4969061;28;20214;-46
2021/03/30 03:24:35;;;;;;;1.67;1.40;;;23.10;25.30;;;;;;4969806;28;20205;-48
2021/03/30 03:27:01;;;;;;;1.70;1.60;;;23.10;25.30;;;;;;4968404;28;20285;-46
2021/03/30 03:29:26;;;;;;;2.30;1.60;;;23.10;25.30;;;;;;4970755;28;20578;-55
2021/03/30 03:31:52;;;;;;;1.50;1.40;;;23.10;25.30;;;;;;4969655;28;20204;-54
2021/03/30 03:34:18;;;;;;;1.53;1.10;;;23.10;25.30;;;;;;4969237;28;20228;-55
2021/03/30 03:36:44;;;;;;;1.37;1.27;;;23.10;25.30;;;;;;4969479;28;20264;-54
2021/03/30 03:39:10;;;;;;;1.60;1.50;;;23.10;25.30;;;;;;4969680;28;20311;-53
2021/03/30 03:41:36;;;;;;;2.03;1.50;;;23.10;25.30;;;;;;4969939;28;20235;-51
2021/03/30 03:44:02;;;;;;;1.83;1.50;;;23.10;25.30;;;;;;4965185;28;20208;-52
2021/03/30 03:46:28;;;;;;;1.40;1.30;;;23.10;25.30;;;;;;4970622;28;20201;-46
2021/03/30 03:48:54;;;;;;;2.10;1.33;;;23.10;25.30;;;;;;4969850;28;20226;-53
2021/03/30 03:51:20;;;;;;;1.40;1.23;;;23.10;25.40;;;;;;4969913;28;20300;-49
2021/03/30 03:53:46;;;;;;;1.63;1.33;;;23.10;25.30;;;;;;4968597;28;20563;-47
2021/03/30 03:56:12;;;;;;;1.23;1.13;;;23.10;25.30;;;;;;4970489;28;20290;-50
2021/03/30 03:58:38;;;;;;;1.50;1.40;;;23.10;25.30;;;;;;4972208;28;20299;-46
2021/03/30 04:01:04;;;;;;;1.30;1.20;;;23.10;25.30;;;;;;4973540;28;20688;-50
2021/03/30 04:03:32;;;;;;;1.60;1.43;;;23.10;25.30;;;;;;4972427;28;20255;-46
2021/03/30 04:05:58;;;;;;;1.23;1.13;;;23.10;25.30;;;;;;4973377;28;20210;-47
2021/03/30 04:08:24;;;;;;;1.40;1.30;;;23.10;25.40;;;;;;4970761;28;20239;-49
2021/03/30 04:10:50;;;;;;;1.53;1.33;;;23.10;25.30;;;;;;4972643;28;20208;-45
2021/03/30 04:13:16;;;;;;;2.30;1.40;;;23.10;25.30;;;;;;4972893;28;20269;-45
2021/03/30 04:15:42;;;;;;;1.30;1.20;;;23.10;25.40;;;;;;4972707;28;20212;-57
2021/03/30 04:18:08;;;;;;;1.47;1.37;;;23.10;25.40;;;;;;4971255;28;20224;-53
2021/03/30 04:20:34;;;;;;;1.40;1.30;;;23.10;25.40;;;;;;4972678;28;20591;-50
2021/03/30 04:23:00;;;;;;;1.43;1.33;;;23.10;25.40;;;;;;4972968;28;20204;-50
2021/03/30 04:25:26;;;;;;;2.30;1.20;;;23.10;25.30;;;;;;4972799;28;20228;-45
2021/03/30 04:27:52;;;;;;;1.97;1.50;;;23.10;25.40;;;;;;4963096;28;20898;-51
2021/03/30 04:30:18;;;;;;;1.30;1.20;;;23.10;25.40;;;;;;4973976;28;20266;-47
2021/03/30 04:32:44;;;;;;;2.20;1.40;;;23.10;25.40;;;;;;4973030;28;20201;-44
2021/03/30 04:35:10;;;;;;;1.43;1.27;;;23.10;25.40;;;;;;4973653;28;20529;-47
2021/03/30 04:37:36;;;;;;;1.30;1.20;;;23.10;25.40;;;;;;4969532;28;20295;-46
2021/03/30 04:40:02;;;;;;;1.40;1.30;;;23.10;25.40;;;;;;4973585;28;20296;-46
2021/03/30 04:42:28;;;;;;;1.30;1.20;;;23.10;25.40;;;;;;4972660;28;20204;-51
2021/03/30 04:44:54;;;;;;;1.10;1.08;;;23.10;25.40;;;;;;4973945;28;20225;-49
2021/03/30 04:47:21;;;;;;;1.45;1.35;;;23.10;25.40;;;;;;4971155;28;20204;-45
2021/03/30 04:49:47;;;;;;;1.53;1.33;;;23.10;25.40;;;;;;4972946;28;20383;-47
2021/03/30 04:52:13;;;;;;;1.43;1.23;;;23.10;25.40;;;;;;4972618;28;20709;-49
2021/03/30 04:54:39;;;;;;;2.17;1.33;;;23.10;25.40;;;;;;4972242;28;20320;-46
2021/03/30 04:57:05;;;;;;;1.40;1.30;;;23.10;25.40;;;;;;4971804;28;20201;-54
2021/03/30 04:59:31;;;;;;;1.70;1.37;;;23.10;25.40;;;;;;4971587;28;20220;-48
2021/03/30 05:01:57;;;;;;;1.50;1.40;;;23.10;25.40;;;;;;4973599;28;20344;-47
2021/03/30 05:04:23;;;;;;;1.77;1.20;;;23.10;25.40;;;;;;4971760;28;20212;-52
2021/03/30 05:06:49;;;;;;;1.50;1.40;;;23.10;25.50;;;;;;4972765;28;20577;-55
2021/03/30 05:09:15;;;;;;;2.33;1.40;;;23.10;25.40;;;;;;4971467;28;20238;-52
2021/03/30 05:11:41;;;;;;;1.40;1.30;;;23.10;25.50;;;;;;4971938;28;20311;-56
2021/03/30 05:14:07;;;;;;;1.47;1.20;;;23.10;25.50;;;;;;4972374;28;20278;-46
2021/03/30 05:16:33;;;;;;;1.30;1.20;;;23.10;25.40;;;;;;4971982;28;20335;-48
2021/03/30 05:18:59;;;;;;;1.53;1.43;;;23.10;25.50;;;;;;4971097;28;20268;-44
2021/03/30 05:21:25;;;;;;;1.33;1.20;;;23.10;25.50;;;;;;4971825;28;20636;-50
2021/03/30 05:23:51;;;;;;;1.43;1.33;;;23.10;25.40;;;;;;4971633;28;20224;-47
2021/03/30 05:26:17;;;;;;;1.70;1.20;;;23.10;25.50;;;;;;4972436;28;20576;-44
2021/03/30 05:28:43;;;;;;;1.73;1.60;;;23.10;25.50;;;;;;4971335;28;20221;-53
2021/03/30 05:31:09;;;;;;;1.30;1.20;;;23.10;25.50;;;;;;4970760;28;20702;-47
2021/03/30 05:33:35;;;;;;;1.77;1.20;;;23.10;25.50;;;;;;4972384;28;20204;-47
2021/03/30 05:36:01;;;;;;;1.93;1.43;;;23.10;25.50;;;;;;4971338;28;20200;-52
2021/03/30 05:38:27;;;;;;;2.23;1.60;;;23.10;25.50;;;;;;4971330;28;20650;-46
2021/03/30 05:40:53;;;;;;;1.50;1.40;;;23.10;25.50;;;;;;4959855;28;20235;-50
2021/03/30 05:43:19;;;;;;;4.77;1.60;;;23.10;25.70;;;;;;4964689;28;20215;-42
2021/03/30 05:45:45;;;;;;;1.77;1.67;;;23.10;26.20;;;;;;4970791;28;20200;-43
2021/03/30 05:48:13;;;;;;;2.77;1.60;;;23.10;26.20;;;;;;4960343;28;20274;-50
2021/03/30 05:50:39;;;;;;;2.07;1.50;;;23.20;26.30;;;;;;4971227;28;20208;-51
2021/03/30 05:53:06;;;;;;;4.83;1.40;;;23.20;26.00;;;;;;4971939;28;20213;-46
2021/03/30 05:55:32;;;;;;;4.17;1.60;;;23.20;26.20;;;;;;4972237;28;20231;-45
2021/03/30 05:57:58;;;;;;;5.13;2.08;;;23.10;26.10;;;;;;4969593;28;20278;-51
2021/03/30 06:00:24;;;;;;;4.87;1.87;;;23.20;26.30;;;;;;4971523;28;20289;-47
2021/03/30 06:02:50;;;;;;;3.97;1.50;;;23.20;26.30;;;;;;4970127;28;20203;-46
2021/03/30 06:05:16;;;;;;;8.15;2.13;;;23.10;26.20;;;;;;4971730;28;20296;-48
2021/03/30 06:07:42;;;;;;;7.25;2.90;;;23.10;26.50;;;;;;4968990;28;20223;-47
2021/03/30 06:10:08;;;;;;;7.90;3.90;;;23.00;24.10;;;;;;4963882;28;20702;-49
2021/03/30 06:12:34;;;;;;;9.13;4.67;;;21.60;22.40;;;;;;4967500;28;20234;-46
2021/03/30 06:15:00;;;;;;;12.93;5.73;;;20.60;21.60;;;;;;4966463;28;20208;-47
2021/03/30 06:17:26;;;;;;;10.73;4.63;;;20.10;21.60;;;;;;4970048;28;20705;-48
2021/03/30 06:19:52;;;;;;;6.37;4.40;;;19.70;22.60;;;;;;4968995;28;20283;-52
2021/03/30 06:22:18;;;;;;;11.03;3.80;;;20.70;22.60;;;;;;4974231;28;20694;-46
2021/03/30 06:24:44;;;;;;;7.50;3.13;;;21.40;22.80;;;;;;4974462;28;20197;-50
2021/03/30 06:27:13;;;;;;;7.87;3.50;;;21.80;22.70;;;;;;4964341;28;20942;-54
2021/03/30 06:29:39;;;;;;;9.07;3.13;;;22.10;22.90;;;;;;4961423;28;20253;-53
2021/03/30 06:32:05;;;;;;;7.30;2.90;;;22.30;23.10;;;;;;4971431;28;20198;-54
2021/03/30 06:34:31;;;;;;;5.67;2.87;;;22.50;23.30;;;;;;4969381;28;20238;-53
2021/03/30 06:36:57;;;;;;;6.77;2.87;;;22.60;23.50;;;;;;4969758;28;20580;-52
2021/03/30 06:39:23;;;;;;;5.33;2.93;;;22.70;23.70;;;;;;4970928;28;20198;-49
2021/03/30 06:41:53;;;;;;;4.63;2.60;;;22.80;23.90;;;;;;4963072;28;20206;-46
2021/03/30 06:44:25;;;;;;;6.47;2.83;;;22.90;24.10;;;;;;4959480;28;20628;-45
2021/03/30 06:46:51;;;;;;;12.13;3.13;;;23.00;24.10;;;;;;4976853;28;20570;-54
2021/03/30 06:49:17;;;;;;;5.17;2.47;;;23.00;24.10;;;;;;4967769;28;20203;-49
2021/03/30 06:51:43;;;;;;;5.37;2.63;;;23.00;24.10;;;;;;4972045;28;20248;-52
2021/03/30 06:54:09;;;;;;;4.97;2.80;;;23.10;24.30;;;;;;4969475;28;20208;-47
2021/03/30 06:56:35;;;;;;;6.37;2.83;;;23.20;24.80;;;;;;4969186;28;20292;-53
2021/03/30 06:59:02;;;;;;;3.83;2.40;;;23.20;24.80;;;;;;4956186;28;20226;-50
2021/03/30 07:01:28;;;;;;;3.30;2.60;;;23.10;24.90;;;;;;4954032;28;20251;-49
2021/03/30 07:03:54;;;;;;;8.13;2.43;;;23.10;24.80;;;;;;4966942;28;20716;-50
2021/03/30 07:06:20;;;;;;;7.63;2.60;;;23.20;25.10;;;;;;4968148;28;20556;-46
2021/03/30 07:08:46;;;;;;;7.23;2.57;;;23.20;25.20;;;;;;4971593;28;20234;-46
2021/03/30 07:11:12;;;;;;;5.37;2.70;;;23.30;25.40;;;;;;4975026;28;20295;-50
2021/03/30 07:13:38;;;;;;;6.80;2.60;;;23.30;25.10;;;;;;4968077;28;20207;-44
2021/03/30 07:16:04;;;;;;;3.07;2.20;;;23.30;25.60;;;;;;4970630;28;20207;-47
2021/03/30 07:18:30;;;;;;;4.40;2.40;;;23.30;25.30;;;;;;4971374;28;20227;-42
2021/03/30 07:20:56;;;;;;;8.17;2.93;;;23.20;24.60;;;;;;4968379;28;20240;-42
2021/03/30 07:23:22;;;;;;;6.83;3.00;;;23.10;23.80;;;;;;4965037;28;20254;-52
2021/03/30 07:25:48;;;;;;;11.73;3.47;;;23.00;23.20;;;;;;4970846;28;20212;-45
2021/03/30 07:28:14;;;;;;;8.20;3.07;;;22.90;22.60;;;;;;4967567;28;20234;-47
2021/03/30 07:30:40;;;;;;;6.40;2.90;;;22.90;22.40;;;;;;4970108;28;20210;-50
2021/03/30 07:33:06;;;;;;;4.70;3.20;;;22.80;22.30;;;;;;4970018;28;20634;-43
2021/03/30 07:35:32;;;;;;;5.77;3.37;;;22.80;22.00;;;;;;4960185;28;20213;-47
2021/03/30 07:37:58;;;;;;;10.07;3.50;;;22.80;21.50;;;;;;4964245;28;20681;-43
2021/03/30 07:40:24;;;;;;;8.77;4.00;;;22.90;22.20;;;;;;4977694;28;20227;-48
2021/03/30 07:42:50;;;;;;;7.50;3.43;;;22.90;22.10;;;;;;4973787;28;20592;-44
2021/03/30 07:45:17;;;;;;;7.37;3.80;;;23.00;21.80;;;;;;4975375;28;20223;-44
2021/03/30 07:47:43;;;;;;;9.43;3.60;;;22.90;22.60;;;;;;4971733;28;20537;-46
2021/03/30 07:50:09;;;;;;;4.77;3.30;;;23.00;22.10;;;;;;4972879;28;20211;-55
2021/03/30 07:52:35;;;;;;;7.10;3.80;;;23.00;22.00;;;;;;4975608;28;20208;-54
2021/03/30 07:55:01;;;;;;;7.57;3.93;;;22.90;21.40;;;;;;4970914;28;20227;-47
2021/03/30 07:57:27;;;;;;;12.03;3.97;;;22.80;21.00;;;;;;4967794;28;20224;-52
2021/03/30 07:59:55;;;;;;;9.93;4.30;;;22.80;21.30;;;;;;4972693;28;20225;-50
2021/03/30 08:02:20;;;;;;;6.53;3.63;;;22.90;20.90;;;;;;4970036;28;20208;-45
2021/03/30 08:04:46;;;;;;;7.60;3.73;;;22.90;21.00;;;;;;4974200;28;20676;-47
2021/03/30 08:07:12;;;;;;;8.50;3.40;;;22.90;21.10;;;;;;4974708;28;20224;-59
2021/03/30 08:09:39;;;;;;;7.27;3.70;;;22.90;21.30;;;;;;4972215;28;20622;-54
2021/03/30 08:12:05;;;;;;;9.80;3.77;;;23.00;22.20;;;;;;4966211;28;20203;-47
2021/03/30 08:14:33;;;;;;;6.93;3.10;;;23.00;22.00;;;;;;4973573;28;20208;-54
2021/03/30 08:16:59;;;;;;;5.63;3.43;;;23.00;22.10;;;;;;4973096;28;20232;-53
2021/03/30 08:19:25;;;;;;;7.07;2.90;;;23.00;22.30;;;;;;4973745;28;20220;-54
2021/03/30 08:21:51;;;;;;;6.03;3.43;;;23.00;22.40;;;;;;4974405;28;20271;-47
2021/03/30 08:24:17;;;;;;;4.70;2.77;;;23.00;22.40;;;;;;4974082;28;20200;-55
2021/03/30 08:26:44;;;;;;;4.07;2.80;;;23.00;22.60;;;;;;4954726;29;20251;-50
2021/03/30 08:29:11;;;;;;;5.37;2.87;;;23.00;22.70;;;;;;4971486;28;20220;-48
2021/03/30 08:31:37;;;;;;;4.03;2.93;;;23.00;22.80;;;;;;4986548;28;20257;-50
2021/03/30 08:34:03;;;;;;;6.10;3.00;;;23.00;22.90;;;;;;4974559;28;20211;-49
2021/03/30 08:36:29;;;;;;;3.70;2.67;;;23.00;23.00;;;;;;4965391;28;20588;-47
2021/03/30 08:38:55;;;;;;;5.40;2.97;;;23.00;23.00;;;;;;4974679;28;20398;-52
2021/03/30 08:41:21;;;;;;;6.07;3.03;;;23.00;23.10;;;;;;4974439;28;20235;-51
2021/03/30 08:43:47;;;;;;;5.90;2.90;;;23.00;23.20;;;;;;4974649;28;20648;-53
2021/03/30 08:46:13;;;;;;;3.10;2.50;;;23.00;23.30;;;;;;4973595;28;20227;-50
2021/03/30 08:48:40;;;;;;;4.07;2.70;;;23.00;23.40;;;;;;4974290;28;20223;-49
2021/03/30 08:51:06;;;;;;;4.73;3.03;;;23.00;23.40;;;;;;4974789;28;20299;-48
2021/03/30 08:53:32;;;;;;;6.70;3.00;;;23.00;23.50;;;;;;4974710;28;20212;-48
2021/03/30 08:55:58;;;;;;;4.03;2.70;;;23.00;23.70;;;;;;4973452;28;20808;-52
2021/03/30 08:58:24;;;;;;;4.57;2.80;;;23.00;23.90;;;;;;4973813;28;20315;-49
2021/03/30 09:00:50;;;;;;;6.60;2.70;;;23.00;24.10;;;;;;4974007;28;20231;-52
2021/03/30 09:03:16;;;;;;;5.47;2.50;;;23.00;24.10;;;;;;4974261;28;20207;-48
2021/03/30 09:05:42;;;;;;;4.80;2.90;;;23.00;24.10;;;;;;4974056;28;20227;-51
2021/03/30 09:08:09;;;;;;;5.83;2.90;;;23.00;24.10;;;;;;4956158;28;20658;-52
2021/03/30 09:10:36;;;;;;;4.90;2.47;;;23.00;24.10;;;;;;4967634;28;20434;-52
2021/03/30 09:13:02;;;;;;;3.47;2.40;;;23.00;24.20;;;;;;4973935;28;20218;-51
2021/03/30 09:15:28;;;;;;;3.60;2.30;;;23.00;24.20;;;;;;4973959;28;20357;-53
2021/03/30 09:17:54;;;;;;;5.43;3.13;;;23.00;24.40;;;;;;4968412;28;20640;-51
2021/03/30 09:20:20;;;;;;;5.63;2.73;;;23.10;24.60;;;;;;4959833;28;20231;-47
2021/03/30 09:22:47;;;;;;;6.20;2.93;;;23.10;24.20;;;;;;4983331;28;20212;-49
2021/03/30 09:25:24;;;;;;;6.17;2.77;;;23.10;24.60;;;;;;4970441;28;20276;-46
2021/03/30 09:27:50;;;;;;;6.60;3.00;;;23.10;24.60;;;;;;4967611;28;20207;-45
2021/03/30 09:30:16;;;;;;;7.23;3.20;;;23.10;24.60;;;;;;4970383;28;20219;-44
2021/03/30 09:32:42;;;;;;;6.13;2.90;;;23.10;24.20;;;;;;4971038;28;20273;-45
2021/03/30 09:35:08;;;;;;;8.40;3.30;;;23.10;24.20;;;;;;4973373;28;20207;-46
2021/03/30 09:37:34;;;;;;;11.23;4.13;;;23.10;23.50;;;;;;4970918;28;20262;-48
2021/03/30 09:40:00;;;;;;;12.47;4.73;;;23.30;24.10;;;;;;4971358;28;20220;-46
2021/03/30 09:42:26;;;;;;;12.97;4.00;;;23.20;23.80;;;;;;4982318;28;20242;-50
2021/03/30 09:44:51;;;;;;;12.43;3.90;;;23.10;23.60;;;;;;4969346;28;20207;-52
2021/03/30 09:47:17;;;;;;;9.20;4.27;;;23.10;23.60;;;;;;4970497;28;20598;-46
2021/03/30 09:49:43;;;;;;;11.30;4.13;;;23.10;23.40;;;;;;4970829;28;20203;-51
2021/03/30 09:52:09;;;;;;;12.70;4.27;;;23.10;23.50;;;;;;4972209;28;20563;-51
2021/03/30 09:54:35;;;;;;;10.33;3.57;;;23.00;23.10;;;;;;4971553;28;20211;-52
2021/03/30 09:57:02;;;;;;;10.67;4.00;;;23.00;23.00;;;;;;4971561;28;20215;-53
2021/03/30 09:59:28;;;;;;;8.10;3.07;;;23.00;22.90;;;;;;4976218;28;20208;-47
2021/03/30 10:01:54;;;;;;;5.10;2.83;;;23.00;22.80;;;;;;4966682;28;20854;-51
2021/03/30 10:04:20;;;;;;;9.40;3.10;;;23.10;22.70;;;;;;4971547;28;20246;-44
2021/03/30 10:06:46;;;;;;;5.77;2.87;;;23.00;22.30;;;;;;4970409;28;20227;-51
2021/03/30 10:09:12;;;;;;;6.37;3.00;;;23.00;22.60;;;;;;4970188;28;20210;-48
2021/03/30 10:11:38;;;;;;;6.20;2.97;;;23.00;22.50;;;;;;4968422;28;20204;-53
2021/03/30 10:14:04;;;;;;;5.40;3.00;;;23.00;22.30;;;;;;4969843;28;20200;-51
2021/03/30 10:16:30;;;;;;;7.63;3.33;;;23.00;22.20;;;;;;4969679;28;20243;-51
2021/03/30 10:18:56;;;;;;;6.33;2.63;;;23.00;22.00;;;;;;4971714;28;20204;-45
2021/03/30 10:21:22;;;;;;;5.93;2.50;;;23.00;22.30;;;;;;4971510;28;20327;-52
2021/03/30 10:23:48;;;;;;;5.13;2.70;;;23.00;22.30;;;;;;4964612;28;20232;-52
2021/03/30 10:26:14;;;;;;;4.70;2.80;;;23.00;22.30;;;;;;4968768;28;20318;-48
2021/03/30 10:28:40;;;;;;;4.70;2.87;;;23.00;22.20;;;;;;4972280;28;20314;-45
2021/03/30 10:31:10;;;;;;;5.00;2.67;;;23.00;22.10;;;;;;4970457;28;20215;-49
2021/03/30 10:33:38;;;;;;;2.83;2.07;;;23.00;22.20;;;;;;4970686;28;20295;-55
2021/03/30 10:36:04;;;;;;;4.50;2.30;;;23.00;22.20;;;;;;4968371;28;20235;-49
2021/03/30 10:38:30;;;;;;;4.23;2.40;;;23.00;22.20;;;;;;4968210;28;20280;-59
2021/03/30 10:40:56;;;;;;;4.77;2.30;;;23.00;22.40;;;;;;4971293;28;20695;-49
2021/03/30 10:43:22;;;;;;;4.00;2.30;;;23.00;22.60;;;;;;4972034;28;20212;-50
2021/03/30 10:45:48;;;;;;;6.00;2.17;;;23.10;22.70;;;;;;4972064;28;20287;-53
2021/03/30 10:48:14;;;;;;;2.87;2.07;;;23.10;22.70;;;;;;4970237;28;20207;-51
2021/03/30 10:50:40;;;;;;;4.40;2.33;;;23.00;22.60;;;;;;4968880;28;20214;-56
2021/03/30 10:53:06;;;;;;;4.13;2.50;;;23.00;22.40;;;;;;4968218;28;20214;-46
2021/03/30 10:55:33;;;;;;;3.30;2.10;;;23.00;22.20;;;;;;4971485;28;20224;-54
2021/03/30 10:57:59;;;;;;;6.70;2.57;;;23.00;22.20;;;;;;4970920;28;20223;-58
2021/03/30 11:00:25;;;;;;;2.33;2.13;;;23.00;22.20;;;;;;4965819;28;20681;-50
2021/03/30 11:02:54;;;;;;;3.90;2.17;;;23.00;22.30;;;;;;4983272;28;20207;-55
2021/03/30 11:05:20;;;;;;;4.83;2.40;;;23.00;22.30;;;;;;4969626;28;20221;-56
2021/03/30 11:07:46;;;;;;;6.03;2.40;;;23.00;22.00;;;;;;4970320;28;20271;-53
2021/03/30 11:10:12;;;;;;;4.03;1.80;;;23.00;22.00;;;;;;4975771;28;20211;-53
2021/03/30 11:12:39;;;;;;;3.60;2.13;;;23.00;22.10;;;;;;4975182;28;20219;-54
2021/03/30 11:15:05;;;;;;;5.07;1.70;;;23.00;21.90;;;;;;4972379;28;20566;-51
2021/03/30 11:17:31;;;;;;;5.17;2.30;;;23.00;22.30;;;;;;4970621;28;20216;-47
2021/03/30 11:19:57;;;;;;;2.30;1.93;;;23.10;22.40;;;;;;4974029;28;20203;-50
2021/03/30 11:22:23;;;;;;;4.13;2.33;;;23.10;22.60;;;;;;4975760;28;20212;-54
2021/03/30 11:24:54;;;;;;;2.37;1.90;;;23.10;22.60;;;;;;4975877;28;20248;-50
2021/03/30 11:27:20;;;;;;;3.00;2.10;;;23.10;22.60;;;;;;4973537;28;20269;-47
2021/03/30 11:29:50;;;;;;;6.67;2.97;;;23.10;22.80;;;;;;4972573;28;20208;-53
2021/03/30 11:35:03;;;;;;;3.33;2.30;;;23.10;22.80;;;;;;4972889;28;20223;-48
2021/03/30 11:37:41;;;;;;;3.13;2.30;;;23.10;22.80;;;;;;4971183;28;20660;-57
2021/03/30 11:40:07;;;;;;;3.60;3.00;;;23.10;22.70;;;;;;4964912;28;20660;-57
2021/03/30 11:42:33;;;;;;;2.40;2.00;;;23.10;22.60;;;;;;4973266;28;20219;-55
2021/03/30 11:44:59;;;;;;;6.03;2.30;;;23.10;22.60;;;;;;4973620;28;20226;-57
2021/03/30 11:47:25;;;;;;;3.33;2.13;;;23.00;22.50;;;;;;4974425;28;20204;-58
2021/03/30 11:49:51;;;;;;;5.80;2.97;;;23.10;22.60;;;;;;4974992;28;20748;-55
2021/03/30 11:52:17;;;;;;;3.23;2.53;;;23.00;22.00;;;;;;4975128;28;20203;-53
2021/03/30 11:54:43;;;;;;;5.63;2.53;;;23.10;22.10;;;;;;4974465;28;20607;-54
2021/03/30 11:57:09;;;;;;;3.37;2.00;;;23.10;22.40;;;;;;4972840;28;20215;-54
2021/03/30 11:59:35;;;;;;;4.57;2.67;;;23.10;22.60;;;;;;4974960;28;20199;-50
2021/03/30 12:02:01;;;;;;;2.53;2.23;;;23.10;22.60;;;;;;4974648;28;20591;-52
2021/03/30 12:04:27;;;;;;;4.33;2.60;;;23.00;22.20;;;;;;4974862;28;20227;-50
2021/03/30 12:06:54;;;;;;;3.13;2.00;;;23.10;22.20;;;;;;4974833;28;20204;-51
2021/03/30 12:09:20;;;;;;;2.70;2.20;;;23.00;22.20;;;;;;4973281;28;20297;-59
2021/03/30 12:11:46;;;;;;;3.93;2.23;;;23.10;22.20;;;;;;4973380;28;20211;-53
2021/03/30 12:14:12;;;;;;;3.90;2.23;;;23.10;22.00;;;;;;4972942;28;20607;-53
2021/03/30 12:16:38;;;;;;;4.17;2.27;;;23.00;21.80;;;;;;4973325;28;20543;-52
2021/03/30 12:19:04;;;;;;;2.73;1.90;;;23.00;21.70;;;;;;4973179;28;20262;-55
2021/03/30 12:21:30;;;;;;;2.43;2.23;;;23.00;21.60;;;;;;4972301;28;20236;-53
2021/03/30 12:23:56;;;;;;;3.03;2.10;;;23.00;21.60;;;;;;4968446;28;20212;-53
2021/03/30 12:26:22;;;;;;;5.60;2.53;;;23.00;21.40;;;;;;4968137;28;20215;-56
2021/03/30 12:28:48;;;;;;;3.40;2.20;;;23.00;21.30;;;;;;4974607;28;20212;-52
2021/03/30 12:31:14;;;;;;;3.70;2.40;;;23.10;21.60;;;;;;4972129;28;20259;-56
2021/03/30 12:33:40;;;;;;;2.93;2.00;;;23.00;21.60;;;;;;4973164;28;20204;-55
2021/03/30 12:36:06;;;;;;;3.73;1.90;;;23.10;21.80;;;;;;4974033;28;20230;-56
2021/03/30 12:38:32;;;;;;;2.30;2.10;;;23.10;22.00;;;;;;4972970;28;20215;-52
2021/03/30 12:40:58;;;;;;;2.50;2.30;;;23.10;21.90;;;;;;4973598;28;20230;-55
2021/03/30 12:43:24;;;;;;;4.60;2.10;;;23.10;22.10;;;;;;4973665;28;20211;-55